createdAt,value
2023-02-02T00:01:52.411Z,100122.31
2023-02-02T00:04:24.244Z,100116.19
2023-02-02T00:06:54.822Z,100122.28
2023-02-02T00:09:24.808Z,100124.78
2023-02-02T00:11:54.955Z,100116.50
2023-02-02T00:14:25.254Z,100121.31
2023-02-02T00:16:59.187Z,100127.41
2023-02-02T00:19:31.669Z,100113.00
2023-02-02T00:22:01.936Z,100115.34
2023-02-02T00:24:32.258Z,100112.69
2023-02-02T00:27:03.124Z,100119.75
2023-02-02T00:29:34.472Z,100105.09
2023-02-02T00:32:07.495Z,100090.69
2023-02-02T00:34:37.528Z,100098.88
2023-02-02T00:37:08.799Z,100093.31
2023-02-02T00:39:38.863Z,100085.00
2023-02-02T00:42:09.095Z,100093.16
2023-02-02T00:44:51.965Z,100078.66
2023-02-02T00:47:24.991Z,100088.19
2023-02-02T00:49:54.998Z,100088.50
2023-02-02T00:52:25.116Z,100102.47
2023-02-02T00:54:55.241Z,100096.94
2023-02-02T00:57:25.510Z,100091.00
2023-02-02T00:59:56.307Z,100084.50
2023-02-02T01:02:29.047Z,100106.50
2023-02-02T01:04:59.064Z,100099.00
2023-02-02T01:07:29.101Z,100104.41
2023-02-02T01:10:15.162Z,100109.81
2023-02-02T01:12:46.813Z,100096.78
2023-02-02T01:15:16.923Z,100087.91
2023-02-02T01:17:49.674Z,100077.81
2023-02-02T01:20:22.063Z,100088.50
2023-02-02T01:22:52.490Z,100089.47
2023-02-02T01:25:22.998Z,100083.66
2023-02-02T01:27:53.063Z,100094.19
2023-02-02T01:30:23.858Z,100093.75
2023-02-02T01:32:56.403Z,100102.75
2023-02-02T01:35:26.609Z,100094.19
2023-02-02T01:37:56.888Z,100102.06
2023-02-02T01:40:27.104Z,100102.34
2023-02-02T01:42:57.232Z,100096.41
2023-02-02T01:45:30.716Z,100094.34
2023-02-02T01:48:03.737Z,100104.03
2023-02-02T01:50:36.961Z,100101.41
2023-02-02T01:53:09.993Z,100110.38
2023-02-02T01:55:42.530Z,100115.50
2023-02-02T01:58:19.713Z,100109.25
2023-02-02T02:00:50.149Z,100115.06
2023-02-02T02:03:25.853Z,100108.41
2023-02-02T02:06:00.477Z,100109.78
2023-02-02T02:08:39.582Z,100129.31
2023-02-02T02:11:10.361Z,100112.56
2023-02-02T02:13:54.444Z,100115.03
2023-02-02T02:16:36.207Z,100121.69
2023-02-02T02:19:24.651Z,100122.06
2023-02-02T02:22:15.193Z,100125.53
2023-02-02T02:25:33.318Z,100129.13
2023-02-02T02:28:30.704Z,100140.78
2023-02-02T02:31:41.932Z,100138.16
2023-02-02T02:34:20.941Z,100162.38
2023-02-02T02:36:56.272Z,100172.06
2023-02-02T02:39:35.278Z,100155.84
2023-02-02T02:42:12.412Z,100156.25
2023-02-02T02:44:44.690Z,100148.75
2023-02-02T02:47:15.009Z,100153.56
2023-02-02T02:49:48.932Z,100154.25
2023-02-02T02:52:19.146Z,100167.56
2023-02-02T02:54:52.521Z,100146.50
2023-02-02T02:57:50.112Z,100150.50
2023-02-02T03:00:35.476Z,100162.00
2023-02-02T03:03:12.017Z,100164.06
2023-02-02T03:05:53.914Z,100172.53
2023-02-02T03:08:30.305Z,100186.38
2023-02-02T03:11:02.415Z,100159.22
2023-02-02T03:13:32.538Z,100164.78
2023-02-02T03:16:02.948Z,100175.41
2023-02-02T03:18:35.482Z,100191.78
2023-02-02T03:21:08.526Z,100187.19
2023-02-02T03:23:38.809Z,100193.59
2023-02-02T03:26:09.486Z,100212.97
2023-02-02T03:28:39.653Z,100214.66
2023-02-02T03:31:09.992Z,100230.16
2023-02-02T03:33:40.404Z,100245.94
2023-02-02T03:36:13.392Z,100241.66
2023-02-02T03:38:43.362Z,100237.22
2023-02-02T03:41:13.604Z,100254.53
2023-02-02T03:43:43.753Z,100260.47
2023-02-02T03:46:13.991Z,100278.38
2023-02-02T03:48:43.970Z,100273.66
2023-02-02T03:51:18.077Z,100281.13
2023-02-02T03:53:48.112Z,100277.94
2023-02-02T03:56:19.404Z,100289.44
2023-02-02T03:58:49.977Z,100282.66
2023-02-02T04:01:20.025Z,100295.41
2023-02-02T04:03:52.909Z,100285.72
2023-02-02T04:06:25.997Z,100304.69
2023-02-02T04:08:56.104Z,100313.00
2023-02-02T04:11:26.056Z,100319.25
2023-02-02T04:13:56.057Z,100323.53
2023-02-02T04:16:26.725Z,100326.72
2023-02-02T04:18:56.765Z,100323.81
2023-02-02T04:21:29.365Z,100342.78
2023-02-02T04:23:59.435Z,100339.88
2023-02-02T04:26:29.809Z,100347.63
2023-02-02T04:28:59.879Z,100334.19
2023-02-02T04:31:30.129Z,100347.22
2023-02-02T04:34:00.236Z,100357.31
2023-02-02T04:36:32.802Z,100360.41
2023-02-02T04:39:02.716Z,100360.50
2023-02-02T04:41:32.792Z,100363.72
2023-02-02T04:44:02.702Z,100369.00
2023-02-02T04:46:32.617Z,100361.91
2023-02-02T04:49:02.688Z,100381.19
2023-02-02T04:51:37.688Z,100382.97
2023-02-02T04:54:07.958Z,100384.78
2023-02-02T04:56:38.070Z,100386.84
2023-02-02T04:59:08.043Z,100406.38
2023-02-02T05:01:38.045Z,100406.97
2023-02-02T05:04:08.387Z,100414.72
2023-02-02T05:06:40.959Z,100414.56
2023-02-02T05:09:11.049Z,100416.94
2023-02-02T05:11:44.495Z,100423.56
2023-02-02T05:14:17.118Z,100438.53
2023-02-02T05:16:47.509Z,100444.50
2023-02-02T05:19:17.536Z,100428.97
2023-02-02T05:21:51.330Z,100451.56
2023-02-02T05:24:21.546Z,100445.16
2023-02-02T05:26:52.944Z,100457.50
2023-02-02T05:29:23.074Z,100457.63
2023-02-02T05:31:53.149Z,100459.56
2023-02-02T05:34:23.244Z,100470.38
2023-02-02T05:36:55.881Z,100473.97
2023-02-02T05:39:25.849Z,100477.56
2023-02-02T05:41:55.958Z,100482.00
2023-02-02T05:44:25.994Z,100491.69
2023-02-02T05:46:56.009Z,100491.00
2023-02-02T05:49:26.145Z,100488.66
2023-02-02T05:52:01.017Z,100489.47
2023-02-02T05:54:31.087Z,100504.44
2023-02-02T05:57:01.299Z,100509.00
2023-02-02T05:59:31.389Z,100511.63
2023-02-02T06:02:01.390Z,100513.56
2023-02-02T06:04:31.401Z,100512.44
2023-02-02T06:07:03.970Z,100514.81
2023-02-02T06:09:33.886Z,100538.47
2023-02-02T06:12:03.900Z,100537.25
2023-02-02T06:14:34.461Z,100543.47
2023-02-02T06:17:04.523Z,100543.75
2023-02-02T06:19:34.490Z,100552.06
2023-02-02T06:22:07.354Z,100559.25
2023-02-02T06:24:37.351Z,100553.59
2023-02-02T06:27:07.212Z,100565.78
2023-02-02T06:29:37.175Z,100568.16
2023-02-02T06:32:07.574Z,100572.44
2023-02-02T06:34:37.613Z,100582.72
2023-02-02T06:37:10.230Z,100580.91
2023-02-02T06:39:40.108Z,100576.47
2023-02-02T06:42:20.863Z,100582.72
2023-02-02T06:44:51.850Z,100580.91
2023-02-02T06:47:21.814Z,100593.25
2023-02-02T06:49:51.793Z,100599.75
2023-02-02T06:52:24.344Z,100595.88
2023-02-02T06:54:54.268Z,100602.66
2023-02-02T06:57:24.239Z,100607.53
2023-02-02T06:59:54.319Z,100614.72
2023-02-02T07:02:24.698Z,100609.19
2023-02-02T07:04:54.905Z,100630.13
2023-02-02T07:07:27.525Z,100631.09
2023-02-02T07:09:57.753Z,100636.00
2023-02-02T07:12:28.489Z,100642.19
2023-02-02T07:14:59.485Z,100646.38
2023-02-02T07:17:29.491Z,100652.34
2023-02-02T07:19:59.509Z,100634.88
2023-02-02T07:22:32.051Z,100658.31
2023-02-02T07:25:01.998Z,100657.75
2023-02-02T07:27:33.074Z,100673.53
2023-02-02T07:30:04.135Z,100670.66
2023-02-02T07:32:34.079Z,100664.28
2023-02-02T07:35:04.159Z,100673.28
2023-02-02T07:37:38.483Z,100677.72
2023-02-02T07:40:12.341Z,100692.41
2023-02-02T07:42:43.512Z,100692.00
2023-02-02T07:45:27.586Z,100694.25
2023-02-02T07:48:01.792Z,100699.94
2023-02-02T07:50:32.953Z,100703.28
2023-02-02T07:53:05.485Z,100708.97
2023-02-02T07:55:35.385Z,100709.41
2023-02-02T07:58:05.351Z,100712.66
2023-02-02T08:00:35.489Z,100711.28
2023-02-02T08:03:05.491Z,100716.97
2023-02-02T08:05:35.470Z,100709.53
2023-02-02T08:08:08.109Z,100724.94
2023-02-02T08:10:38.053Z,100732.31
2023-02-02T08:13:07.974Z,100726.41
2023-02-02T08:15:37.973Z,100734.03
2023-02-02T08:18:08.007Z,100741.97
2023-02-02T08:20:38.040Z,100750.56
2023-02-02T08:23:15.766Z,100744.16
2023-02-02T08:25:46.044Z,100757.22
2023-02-02T08:28:15.970Z,100761.25
2023-02-02T08:30:46.079Z,100758.94
2023-02-02T08:33:16.249Z,100763.78
2023-02-02T08:35:47.340Z,100766.69
2023-02-02T08:38:19.937Z,100763.38
2023-02-02T08:40:50.023Z,100773.94
2023-02-02T08:43:20.066Z,100777.94
2023-02-02T08:46:02.920Z,100785.75
2023-02-02T08:48:34.903Z,100771.84
2023-02-02T08:51:49.192Z,100782.28
2023-02-02T08:54:21.779Z,100778.69
2023-02-02T08:56:51.881Z,100785.22
2023-02-02T08:59:21.857Z,100788.25
2023-02-02T09:01:51.849Z,100784.66
2023-02-02T09:04:21.771Z,100785.25
2023-02-02T09:06:51.819Z,100803.13
2023-02-02T09:09:24.614Z,100801.22
2023-02-02T09:11:54.549Z,100798.22
2023-02-02T09:14:24.445Z,100805.75
2023-02-02T09:16:54.521Z,100807.81
2023-02-02T09:19:24.533Z,100809.91
2023-02-02T09:21:54.561Z,100809.63
2023-02-02T09:24:27.172Z,100816.34
2023-02-02T09:26:57.151Z,100816.59
2023-02-02T09:29:27.160Z,100823.28
2023-02-02T09:31:57.239Z,100829.66
2023-02-02T09:34:27.292Z,100828.69
2023-02-02T09:36:57.546Z,100840.78
2023-02-02T09:39:30.606Z,100841.19
2023-02-02T09:42:29.370Z,100834.09
2023-02-02T09:45:04.627Z,100832.16
2023-02-02T09:47:55.579Z,100845.63
2023-02-02T09:50:38.033Z,100844.91
2023-02-02T09:53:14.041Z,100849.59
2023-02-02T09:55:48.093Z,100851.53
2023-02-02T09:58:24.132Z,100860.00
2023-02-02T10:00:59.653Z,100851.66
2023-02-02T10:03:35.929Z,100864.75
2023-02-02T10:06:13.754Z,100855.50
2023-02-02T10:08:48.734Z,100853.59
2023-02-02T10:11:32.770Z,100862.34
2023-02-02T10:14:07.454Z,100854.53
2023-02-02T10:16:41.139Z,100855.09
2023-02-02T10:19:15.204Z,100860.75
2023-02-02T10:21:51.765Z,100863.97
2023-02-02T10:24:24.798Z,100858.81
2023-02-02T10:27:04.181Z,100858.84
2023-02-02T10:29:48.904Z,100877.00
2023-02-02T10:32:25.745Z,100874.78
2023-02-02T10:35:13.918Z,100877.84
2023-02-02T10:37:51.380Z,100881.38
2023-02-02T10:40:36.256Z,100871.84
2023-02-02T10:43:35.378Z,100881.78
2023-02-02T10:46:07.807Z,100881.31
2023-02-02T10:48:38.743Z,100888.28
2023-02-02T10:51:18.500Z,100895.38
2023-02-02T10:53:53.416Z,100880.94
2023-02-02T10:56:29.461Z,100888.44
2023-02-02T10:59:08.924Z,100905.34
2023-02-02T11:01:38.921Z,100908.00
2023-02-02T11:04:21.784Z,100907.97
2023-02-02T11:06:54.794Z,100912.47
2023-02-02T11:09:28.617Z,100921.09
2023-02-02T11:12:03.856Z,100922.91
2023-02-02T11:14:45.537Z,100916.81
2023-02-02T11:17:24.355Z,100930.91
2023-02-02T11:19:55.964Z,100931.16
2023-02-02T11:22:35.224Z,100936.97
2023-02-02T11:25:08.521Z,100948.66
2023-02-02T11:27:43.453Z,100957.41
2023-02-02T11:30:27.958Z,100949.28
2023-02-02T11:32:58.046Z,100947.16
2023-02-02T11:35:29.819Z,100944.34
2023-02-02T11:38:13.335Z,100969.31
2023-02-02T11:40:46.664Z,100970.34
2023-02-02T11:43:22.827Z,100969.28
2023-02-02T11:46:02.976Z,100972.47
2023-02-02T11:48:41.470Z,100984.03
2023-02-02T11:51:30.180Z,100999.44
2023-02-02T11:54:09.308Z,101007.09
2023-02-02T11:56:45.037Z,101004.50
2023-02-02T11:59:36.583Z,101003.88
2023-02-02T12:02:34.107Z,100995.78
2023-02-02T12:05:37.895Z,101016.88
2023-02-02T12:08:19.020Z,101006.69
2023-02-02T12:10:57.518Z,101017.31
2023-02-02T12:14:04.568Z,101011.66
2023-02-02T12:16:46.332Z,101024.63
2023-02-02T12:19:43.624Z,101025.31
2023-02-02T12:22:34.170Z,101031.06
2023-02-02T12:25:12.708Z,101029.56
2023-02-02T12:27:54.453Z,101025.84
2023-02-02T12:30:36.127Z,101026.31
2023-02-02T12:33:24.194Z,101040.25
2023-02-02T12:36:12.377Z,101029.69
2023-02-02T12:39:02.709Z,101040.78
2023-02-02T12:41:46.498Z,101036.59
2023-02-02T12:44:26.411Z,101043.84
2023-02-02T12:47:08.769Z,101048.69
2023-02-02T12:50:03.292Z,101050.66
2023-02-02T12:52:50.941Z,101051.84
2023-02-02T12:55:30.436Z,101052.56
2023-02-02T12:58:11.991Z,101059.50
2023-02-02T13:01:14.052Z,101063.69
2023-02-02T13:04:02.550Z,101057.03
2023-02-02T13:06:56.842Z,101048.09
2023-02-02T13:09:34.659Z,101060.75
2023-02-02T13:12:10.431Z,101064.81
2023-02-02T13:14:51.182Z,101075.19
2023-02-02T13:17:26.457Z,101060.44
2023-02-02T13:20:14.258Z,101078.06
2023-02-02T13:22:50.696Z,101079.09
2023-02-02T13:25:31.799Z,101089.88
2023-02-02T13:28:03.512Z,101099.50
2023-02-02T13:30:43.011Z,101102.28
2023-02-02T13:33:21.804Z,101103.50
2023-02-02T13:35:58.162Z,101118.28
2023-02-02T13:38:30.960Z,101126.06
2023-02-02T13:41:14.047Z,101139.19
2023-02-02T13:43:54.103Z,101147.91
2023-02-02T13:46:33.363Z,101146.22
2023-02-02T13:49:10.940Z,101144.81
2023-02-02T13:52:03.161Z,101143.75
2023-02-02T13:54:59.217Z,101156.28
2023-02-02T13:57:57.724Z,101154.97
2023-02-02T14:00:33.692Z,101162.25
2023-02-02T14:03:06.747Z,101163.09
2023-02-02T14:05:39.786Z,101161.56
2023-02-02T14:08:19.308Z,101168.81
2023-02-02T14:11:02.613Z,101179.91
2023-02-02T14:13:56.876Z,101193.00
2023-02-02T14:16:44.836Z,101198.31
2023-02-02T14:19:19.058Z,101202.75
2023-02-02T14:22:20.123Z,101212.91
2023-02-02T14:24:53.694Z,101210.50
2023-02-02T14:27:58.739Z,101213.03
2023-02-02T14:30:35.557Z,101222.88
2023-02-02T14:33:27.749Z,101226.47
2023-02-02T14:36:04.436Z,101242.38
2023-02-02T14:38:58.958Z,101250.72
2023-02-02T14:41:53.447Z,101255.84
2023-02-02T14:44:24.110Z,101269.50
2023-02-02T14:46:59.277Z,101276.91
2023-02-02T14:49:35.576Z,101280.06
2023-02-02T14:52:06.523Z,101292.72
2023-02-02T14:54:40.310Z,101295.91
2023-02-02T14:57:26.666Z,101303.72
2023-02-02T15:00:01.199Z,101310.28
2023-02-02T15:02:39.445Z,101310.44
2023-02-02T15:05:39.192Z,101319.50
2023-02-02T15:08:16.914Z,101325.06
2023-02-02T15:11:01.550Z,101334.41
2023-02-02T15:13:37.681Z,101334.69
2023-02-02T15:16:15.349Z,101344.25
2023-02-02T15:18:52.156Z,101343.16
2023-02-02T15:21:24.204Z,101351.41
2023-02-02T15:23:54.654Z,101355.41
2023-02-02T15:26:28.773Z,101364.09
2023-02-02T15:29:03.368Z,101361.03
2023-02-02T15:31:39.655Z,101376.19
2023-02-02T15:34:20.955Z,101380.09
2023-02-02T15:36:54.626Z,101386.84
2023-02-02T15:39:31.903Z,101393.59
2023-02-02T15:42:17.832Z,101390.00
2023-02-02T15:44:48.396Z,101394.31
2023-02-02T15:47:22.961Z,101396.63
2023-02-02T15:49:55.727Z,101411.13
2023-02-02T15:52:29.406Z,101425.63
2023-02-02T15:55:01.220Z,101423.34
2023-02-02T15:57:34.558Z,101432.56
2023-02-02T16:00:26.580Z,101437.59
2023-02-02T16:03:02.618Z,101448.50
2023-02-02T16:05:48.487Z,101446.22
2023-02-02T16:08:26.400Z,101463.25
2023-02-02T16:11:08.701Z,101467.03
2023-02-02T16:13:40.345Z,101476.03
2023-02-02T16:16:26.661Z,101480.81
2023-02-02T16:19:14.628Z,101483.91
2023-02-02T16:21:51.878Z,101481.94
2023-02-02T16:24:26.938Z,101492.34
2023-02-02T16:27:05.163Z,101500.78
2023-02-02T16:29:39.244Z,101500.41
2023-02-02T16:32:09.285Z,101512.22
2023-02-02T16:34:50.259Z,101516.25
2023-02-02T16:37:27.341Z,101521.47
2023-02-02T16:39:58.247Z,101530.75
2023-02-02T16:42:30.534Z,101537.19
2023-02-02T16:45:01.649Z,101536.56
2023-02-02T16:47:42.105Z,101551.53
2023-02-02T16:50:35.812Z,101550.91
2023-02-02T16:53:08.977Z,101554.09
2023-02-02T16:55:50.493Z,101550.09
2023-02-02T16:58:24.401Z,101547.78
2023-02-02T17:01:14.007Z,101557.56
2023-02-02T17:03:53.366Z,101563.97
2023-02-02T17:06:45.934Z,101562.72
2023-02-02T17:09:34.725Z,101574.81
2023-02-02T17:12:16.657Z,101577.66
2023-02-02T17:14:54.738Z,101575.03
2023-02-02T17:17:25.037Z,101584.22
2023-02-02T17:19:55.189Z,101586.09
2023-02-02T17:22:27.696Z,101592.53
2023-02-02T17:25:01.968Z,101592.53
2023-02-02T17:27:35.095Z,101598.94
2023-02-02T17:30:06.892Z,101600.09
2023-02-02T17:32:36.944Z,101601.16
2023-02-02T17:35:16.567Z,101603.13
2023-02-02T17:37:46.848Z,101597.34
2023-02-02T17:40:21.812Z,101602.81
2023-02-02T17:42:54.618Z,101612.59
2023-02-02T17:45:27.191Z,101615.22
2023-02-02T17:47:57.424Z,101621.84
2023-02-02T17:50:27.863Z,101629.19
2023-02-02T17:52:58.474Z,101625.91
2023-02-02T17:55:34.606Z,101620.03
2023-02-02T17:58:04.689Z,101632.97
2023-02-02T18:00:35.332Z,101635.06
2023-02-02T18:03:16.578Z,101631.69
2023-02-02T18:05:47.134Z,101639.00
2023-02-02T18:08:17.567Z,101643.53
2023-02-02T18:10:50.509Z,101642.03
2023-02-02T18:13:22.959Z,101637.19
2023-02-02T18:15:56.299Z,101645.19
2023-02-02T18:18:27.435Z,101640.66
2023-02-02T18:20:59.113Z,101642.34
2023-02-02T18:23:29.477Z,101633.53
2023-02-02T18:26:11.589Z,101637.94
2023-02-02T18:28:41.768Z,101642.34
2023-02-02T18:31:13.527Z,101632.13
2023-02-02T18:33:44.208Z,101643.50
2023-02-02T18:36:19.011Z,101640.13
2023-02-02T18:38:51.207Z,101649.34
2023-02-02T18:41:24.324Z,101641.88
2023-02-02T18:43:57.063Z,101641.88
2023-02-02T18:46:27.395Z,101652.47
2023-02-02T18:48:58.518Z,101646.94
2023-02-02T18:51:28.993Z,101643.66
2023-02-02T18:54:00.486Z,101644.59
2023-02-02T18:56:33.491Z,101658.88
2023-02-02T18:59:03.767Z,101658.03
2023-02-02T19:01:33.910Z,101640.69
2023-02-02T19:04:04.373Z,101641.72
2023-02-02T19:06:46.839Z,101649.59
2023-02-02T19:09:17.507Z,101644.00
2023-02-02T19:11:54.942Z,101643.16
2023-02-02T19:14:27.341Z,101649.44
2023-02-02T19:17:02.296Z,101638.00
2023-02-02T19:19:35.516Z,101652.72
2023-02-02T19:22:19.745Z,101644.19
2023-02-02T19:24:51.061Z,101652.38
2023-02-02T19:27:26.696Z,101659.56
2023-02-02T19:29:59.965Z,101659.81
2023-02-02T19:32:35.124Z,101661.13
2023-02-02T19:35:05.889Z,101661.41
2023-02-02T19:37:43.429Z,101660.97
2023-02-02T19:40:26.611Z,101666.50
2023-02-02T19:43:07.842Z,101671.19
2023-02-02T19:45:39.775Z,101662.72
2023-02-02T19:48:17.992Z,101668.06
2023-02-02T19:50:48.934Z,101664.03
2023-02-02T19:53:23.301Z,101665.25
2023-02-02T19:55:54.448Z,101667.13
2023-02-02T19:58:29.298Z,101667.88
2023-02-02T20:01:00.781Z,101673.84
2023-02-02T20:03:42.941Z,101674.78
2023-02-02T20:06:15.834Z,101677.88
2023-02-02T20:08:46.939Z,101670.59
2023-02-02T20:11:32.485Z,101673.81
2023-02-02T20:14:22.882Z,101664.91
2023-02-02T20:16:55.647Z,101669.97
2023-02-02T20:19:29.499Z,101669.50
2023-02-02T20:22:00.085Z,101673.09
2023-02-02T20:24:35.174Z,101676.16
2023-02-02T20:27:16.251Z,101677.44
2023-02-02T20:29:51.350Z,101680.25
2023-02-02T20:32:26.372Z,101674.72
2023-02-02T20:34:57.862Z,101677.69
2023-02-02T20:37:30.903Z,101676.38
2023-02-02T20:40:03.264Z,101672.53
2023-02-02T20:42:33.857Z,101676.00
2023-02-02T20:45:06.870Z,101676.97
2023-02-02T20:47:38.508Z,101671.41
2023-02-02T20:50:10.318Z,101671.19
2023-02-02T20:52:40.715Z,101672.97
2023-02-02T20:55:12.229Z,101667.31
2023-02-02T20:57:42.394Z,101660.47
2023-02-02T21:00:21.424Z,101664.09
2023-02-02T21:02:52.155Z,101665.97
2023-02-02T21:05:22.168Z,101659.06
2023-02-02T21:07:55.030Z,101655.75
2023-02-02T21:10:26.778Z,101656.44
2023-02-02T21:12:57.026Z,101652.28
2023-02-02T21:15:29.804Z,101647.06
2023-02-02T21:17:59.819Z,101654.91
2023-02-02T21:20:29.938Z,101647.16
2023-02-02T21:23:00.044Z,101642.56
2023-02-02T21:25:29.956Z,101647.19
2023-02-02T21:28:00.411Z,101645.94
2023-02-02T21:30:33.185Z,101638.09
2023-02-02T21:33:03.312Z,101630.44
2023-02-02T21:35:33.309Z,101629.88
2023-02-02T21:38:10.004Z,101621.34
2023-02-02T21:40:40.143Z,101625.56
2023-02-02T21:43:17.408Z,101633.34
2023-02-02T21:45:53.385Z,101630.91
2023-02-02T21:48:32.818Z,101628.75
2023-02-02T21:51:19.401Z,101624.25
2023-02-02T21:53:49.424Z,101631.28
2023-02-02T21:56:30.084Z,101630.06
2023-02-02T21:59:02.364Z,101626.41
2023-02-02T22:01:39.713Z,101629.34
2023-02-02T22:04:18.791Z,101626.56
2023-02-02T22:06:50.509Z,101618.66
2023-02-02T22:09:23.689Z,101626.03
2023-02-02T22:11:58.465Z,101620.59
2023-02-02T22:14:35.865Z,101617.13
2023-02-02T22:17:21.433Z,101604.28
2023-02-02T22:19:53.976Z,101601.63
2023-02-02T22:22:26.042Z,101598.44
2023-02-02T22:25:01.805Z,101599.53
2023-02-02T22:27:49.833Z,101607.41
2023-02-02T22:30:28.756Z,101605.91
2023-02-02T22:33:01.843Z,101603.72
2023-02-02T22:35:32.060Z,101601.94
2023-02-02T22:38:02.530Z,101606.34
2023-02-02T22:40:33.378Z,101609.66
2023-02-02T22:43:08.275Z,101610.56
2023-02-02T22:45:38.420Z,101598.41
2023-02-02T22:48:11.584Z,101604.34
2023-02-02T22:50:41.797Z,101608.47
2023-02-02T22:53:12.446Z,101608.81
2023-02-02T22:55:43.467Z,101610.81
2023-02-02T22:58:13.539Z,101610.94
2023-02-02T23:00:43.510Z,101613.97
2023-02-02T23:03:16.109Z,101617.75
2023-02-02T23:05:46.082Z,101614.13
2023-02-02T23:08:16.134Z,101606.34
2023-02-02T23:10:46.065Z,101611.59
2023-02-02T23:13:16.009Z,101596.53
2023-02-02T23:15:46.068Z,101606.47
2023-02-02T23:18:18.899Z,101594.09
2023-02-02T23:20:49.059Z,101590.53
2023-02-02T23:23:19.024Z,101591.47
2023-02-02T23:25:49.081Z,101586.06
2023-02-02T23:28:19.171Z,101586.31
2023-02-02T23:30:49.575Z,101587.25
2023-02-02T23:33:22.342Z,101579.81
2023-02-02T23:35:52.319Z,101584.22
2023-02-02T23:38:37.298Z,101586.06
2023-02-02T23:41:07.501Z,101578.00
2023-02-02T23:43:42.563Z,101572.38
2023-02-02T23:46:14.195Z,101559.28
2023-02-02T23:48:47.341Z,101562.47
2023-02-02T23:51:17.736Z,101549.56
2023-02-02T23:53:48.154Z,101554.41
2023-02-02T23:56:18.481Z,101544.94
2023-02-02T23:58:48.705Z,101547.66
